sensor_id;sensor_type;location;lat;lon;timestamp;temperature;humidity
7378;DHT22;3730;50.856;12.776;2023-01-29T00:02:11;-1.40;99.90
7378;DHT22;3730;50.856;12.776;2023-01-29T00:04:37;0.90;99.90
7378;DHT22;3730;50.856;12.776;2023-01-29T00:07:03;1.70;99.90
7378;DHT22;3730;50.856;12.776;2023-01-29T00:09:28;0.50;99.90
7378;DHT22;3730;50.856;12.776;2023-01-29T00:11:55;1.00;99.90
7378;DHT22;3730;50.856;12.776;2023-01-29T00:14:21;-1.40;99.90
7378;DHT22;3730;50.856;12.776;2023-01-29T00:16:47;1.90;99.90
7378;DHT22;3730;50.856;12.776;2023-01-29T00:19:12;1.20;99.90
7378;DHT22;3730;50.856;12.776;2023-01-29T00:21:38;-1.50;99.90
7378;DHT22;3730;50.856;12.776;2023-01-29T00:24:03;-1.40;99.90
7378;DHT22;3730;50.856;12.776;2023-01-29T00:26:29;-1.50;99.90
7378;DHT22;3730;50.856;12.776;2023-01-29T00:28:55;-1.50;99.90
7378;DHT22;3730;50.856;12.776;2023-01-29T00:31:27;-0.40;99.90
7378;DHT22;3730;50.856;12.776;2023-01-29T00:33:53;-1.50;99.90
7378;DHT22;3730;50.856;12.776;2023-01-29T00:36:20;-1.50;99.90
7378;DHT22;3730;50.856;12.776;2023-01-29T00:38:46;0.70;99.90
7378;DHT22;3730;50.856;12.776;2023-01-29T00:41:19;0.30;99.90
7378;DHT22;3730;50.856;12.776;2023-01-29T00:44:05;-1.40;99.90
7378;DHT22;3730;50.856;12.776;2023-01-29T00:46:49;0.30;99.90
7378;DHT22;3730;50.856;12.776;2023-01-29T00:49:15;-1.50;99.90
7378;DHT22;3730;50.856;12.776;2023-01-29T00:51:40;0.00;99.90
7378;DHT22;3730;50.856;12.776;2023-01-29T00:54:06;-1.50;99.90
7378;DHT22;3730;50.856;12.776;2023-01-29T00:56:34;1.60;99.90
7378;DHT22;3730;50.856;12.776;2023-01-29T00:59:00;1.40;99.90
7378;DHT22;3730;50.856;12.776;2023-01-29T01:01:26;-0.40;99.90
7378;DHT22;3730;50.856;12.776;2023-01-29T01:04:11;-1.60;99.90
7378;DHT22;3730;50.856;12.776;2023-01-29T01:06:37;0.60;99.90
7378;DHT22;3730;50.856;12.776;2023-01-29T01:09:04;-1.30;99.90
7378;DHT22;3730;50.856;12.776;2023-01-29T01:11:48;0.30;99.90
7378;DHT22;3730;50.856;12.776;2023-01-29T01:14:14;0.00;99.90
7378;DHT22;3730;50.856;12.776;2023-01-29T01:16:39;1.50;99.90
7378;DHT22;3730;50.856;12.776;2023-01-29T01:19:05;-1.70;99.90
7378;DHT22;3730;50.856;12.776;2023-01-29T01:21:31;-1.80;99.90
7378;DHT22;3730;50.856;12.776;2023-01-29T01:23:57;-1.80;99.90
7378;DHT22;3730;50.856;12.776;2023-01-29T01:26:23;1.20;99.90
7378;DHT22;3730;50.856;12.776;2023-01-29T01:28:48;-1.80;99.90
7378;DHT22;3730;50.856;12.776;2023-01-29T01:31:14;1.20;99.90
7378;DHT22;3730;50.856;12.776;2023-01-29T01:33:40;-1.90;99.90
7378;DHT22;3730;50.856;12.776;2023-01-29T01:36:06;0.80;99.90
7378;DHT22;3730;50.856;12.776;2023-01-29T01:38:38;-1.80;99.90
7378;DHT22;3730;50.856;12.776;2023-01-29T01:41:10;-1.90;99.90
7378;DHT22;3730;50.856;12.776;2023-01-29T01:46:20;-1.80;99.90
7378;DHT22;3730;50.856;12.776;2023-01-29T01:49:00;-1.80;99.90
7378;DHT22;3730;50.856;12.776;2023-01-29T02:41:14;-2.40;99.90
7378;DHT22;3730;50.856;12.776;2023-01-29T02:43:46;-2.40;99.90
7378;DHT22;3730;50.856;12.776;2023-01-29T02:51:43;-2.60;99.90
7378;DHT22;3730;50.856;12.776;2023-01-29T02:54:20;-2.60;99.90
7378;DHT22;3730;50.856;12.776;2023-01-29T02:56:54;-2.60;99.90
7378;DHT22;3730;50.856;12.776;2023-01-29T02:59:31;-2.60;99.90
7378;DHT22;3730;50.856;12.776;2023-01-29T03:02:02;-1.10;99.90
7378;DHT22;3730;50.856;12.776;2023-01-29T03:04:33;-0.90;99.90
7378;DHT22;3730;50.856;12.776;2023-01-29T03:07:04;-2.70;99.90
7378;DHT22;3730;50.856;12.776;2023-01-29T03:09:41;-2.80;99.90
7378;DHT22;3730;50.856;12.776;2023-01-29T03:12:24;-2.80;99.90
7378;DHT22;3730;50.856;12.776;2023-01-29T03:15:20;-2.80;99.90
7378;DHT22;3730;50.856;12.776;2023-01-29T03:18:07;-2.80;99.90
7378;DHT22;3730;50.856;12.776;2023-01-29T03:20:36;0.50;99.90
7378;DHT22;3730;50.856;12.776;2023-01-29T03:23:08;-1.00;99.90
7378;DHT22;3730;50.856;12.776;2023-01-29T03:25:35;-2.90;99.90
7378;DHT22;3730;50.856;12.776;2023-01-29T03:28:22;0.30;99.90
7378;DHT22;3730;50.856;12.776;2023-01-29T03:31:09;-0.20;99.90
7378;DHT22;3730;50.856;12.776;2023-01-29T03:34:07;0.50;99.90
7378;DHT22;3730;50.856;12.776;2023-01-29T03:36:40;-3.00;99.90
7378;DHT22;3730;50.856;12.776;2023-01-29T03:39:10;-2.90;99.90
7378;DHT22;3730;50.856;12.776;2023-01-29T03:42:03;-3.00;99.90
7378;DHT22;3730;50.856;12.776;2023-01-29T03:44:34;-2.90;99.90
7378;DHT22;3730;50.856;12.776;2023-01-29T03:49:56;-2.40;99.90
7378;DHT22;3730;50.856;12.776;2023-01-29T03:52:35;-3.00;99.90
7378;DHT22;3730;50.856;12.776;2023-01-29T03:55:30;-2.90;99.90
7378;DHT22;3730;50.856;12.776;2023-01-29T03:58:02;-3.00;99.90
7378;DHT22;3730;50.856;12.776;2023-01-29T04:00:33;-2.90;99.90
7378;DHT22;3730;50.856;12.776;2023-01-29T04:03:15;-3.00;99.90
7378;DHT22;3730;50.856;12.776;2023-01-29T04:05:48;-1.40;99.90
7378;DHT22;3730;50.856;12.776;2023-01-29T04:08:23;0.30;99.90
7378;DHT22;3730;50.856;12.776;2023-01-29T04:10:52;-3.10;99.90
7378;DHT22;3730;50.856;12.776;2023-01-29T04:13:19;-3.20;99.90
7378;DHT22;3730;50.856;12.776;2023-01-29T04:15:53;-3.30;99.90
7378;DHT22;3730;50.856;12.776;2023-01-29T04:18:20;-2.90;99.90
7378;DHT22;3730;50.856;12.776;2023-01-29T04:20:46;-3.30;99.90
7378;DHT22;3730;50.856;12.776;2023-01-29T04:23:25;-3.30;99.90
7378;DHT22;3730;50.856;12.776;2023-01-29T04:31:44;-3.30;99.90
7378;DHT22;3730;50.856;12.776;2023-01-29T04:34:33;-3.30;99.90
7378;DHT22;3730;50.856;12.776;2023-01-29T04:37:16;-3.80;99.90
7378;DHT22;3730;50.856;12.776;2023-01-29T04:42:36;-3.30;99.90
7378;DHT22;3730;50.856;12.776;2023-01-29T04:45:31;-3.30;99.90
7378;DHT22;3730;50.856;12.776;2023-01-29T04:48:17;-3.30;99.90
7378;DHT22;3730;50.856;12.776;2023-01-29T04:51:01;-3.30;99.90
7378;DHT22;3730;50.856;12.776;2023-01-29T04:58:54;-3.50;1.00
7378;DHT22;3730;50.856;12.776;2023-01-29T05:01:24;-3.80;1.00
7378;DHT22;3730;50.856;12.776;2023-01-29T05:03:55;-3.50;1.00
7378;DHT22;3730;50.856;12.776;2023-01-29T05:06:23;-3.60;1.00
7378;DHT22;3730;50.856;12.776;2023-01-29T05:08:50;-3.50;1.00
7378;DHT22;3730;50.856;12.776;2023-01-29T05:11:17;-3.60;1.00
7378;DHT22;3730;50.856;12.776;2023-01-29T05:13:44;-3.60;1.00
7378;DHT22;3730;50.856;12.776;2023-01-29T05:16:13;-3.70;1.00
7378;DHT22;3730;50.856;12.776;2023-01-29T05:18:41;-3.70;1.00
7378;DHT22;3730;50.856;12.776;2023-01-29T05:21:08;-3.80;1.00
7378;DHT22;3730;50.856;12.776;2023-01-29T05:23:34;-3.70;1.00
7378;DHT22;3730;50.856;12.776;2023-01-29T05:26:00;-3.70;1.00
7378;DHT22;3730;50.856;12.776;2023-01-29T05:28:25;-3.60;1.00
7378;DHT22;3730;50.856;12.776;2023-01-29T05:30:54;-3.70;1.00
7378;DHT22;3730;50.856;12.776;2023-01-29T05:35:48;-3.70;1.00
7378;DHT22;3730;50.856;12.776;2023-01-29T05:38:14;-3.60;1.00
7378;DHT22;3730;50.856;12.776;2023-01-29T05:40:40;-3.70;1.00
7378;DHT22;3730;50.856;12.776;2023-01-29T05:43:17;-3.70;1.00
7378;DHT22;3730;50.856;12.776;2023-01-29T05:48:19;-3.70;1.00
7378;DHT22;3730;50.856;12.776;2023-01-29T05:50:45;-3.70;1.00
7378;DHT22;3730;50.856;12.776;2023-01-29T05:53:10;-3.90;1.00
7378;DHT22;3730;50.856;12.776;2023-01-29T05:58:02;-3.90;1.00
7378;DHT22;3730;50.856;12.776;2023-01-29T06:00:28;-3.90;1.00
7378;DHT22;3730;50.856;12.776;2023-01-29T06:02:53;-4.00;1.00
7378;DHT22;3730;50.856;12.776;2023-01-29T06:05:19;-3.80;1.00
7378;DHT22;3730;50.856;12.776;2023-01-29T06:07:44;-3.90;1.00
7378;DHT22;3730;50.856;12.776;2023-01-29T06:10:13;-4.00;1.00
7378;DHT22;3730;50.856;12.776;2023-01-29T06:15:06;-4.00;1.00
7378;DHT22;3730;50.856;12.776;2023-01-29T06:17:31;-4.00;1.00
7378;DHT22;3730;50.856;12.776;2023-01-29T06:19:57;-3.90;1.00
7378;DHT22;3730;50.856;12.776;2023-01-29T06:22:22;-3.90;1.00
7378;DHT22;3730;50.856;12.776;2023-01-29T06:24:48;-3.90;1.00
7378;DHT22;3730;50.856;12.776;2023-01-29T06:27:14;-3.90;1.00
7378;DHT22;3730;50.856;12.776;2023-01-29T06:29:39;-3.90;1.00
7378;DHT22;3730;50.856;12.776;2023-01-29T06:34:31;-4.00;1.00
7378;DHT22;3730;50.856;12.776;2023-01-29T06:36:56;-4.10;1.00
7378;DHT22;3730;50.856;12.776;2023-01-29T06:44:14;-3.90;1.00
7378;DHT22;3730;50.856;12.776;2023-01-29T06:46:40;-4.10;1.00
7378;DHT22;3730;50.856;12.776;2023-01-29T06:49:05;-4.00;1.00
7378;DHT22;3730;50.856;12.776;2023-01-29T06:51:31;-4.00;1.00
7378;DHT22;3730;50.856;12.776;2023-01-29T06:58:49;-3.90;1.00
7378;DHT22;3730;50.856;12.776;2023-01-29T07:01:15;-4.00;1.00
7378;DHT22;3730;50.856;12.776;2023-01-29T07:03:41;-4.00;1.00
7378;DHT22;3730;50.856;12.776;2023-01-29T07:06:08;-4.00;1.00
7378;DHT22;3730;50.856;12.776;2023-01-29T07:08:37;-4.00;1.00
7378;DHT22;3730;50.856;12.776;2023-01-29T07:11:04;-4.00;1.00
7378;DHT22;3730;50.856;12.776;2023-01-29T07:13:30;-4.00;1.00
7378;DHT22;3730;50.856;12.776;2023-01-29T07:16:03;-3.80;1.00
7378;DHT22;3730;50.856;12.776;2023-01-29T07:18:30;-4.30;1.00
7378;DHT22;3730;50.856;12.776;2023-01-29T07:20:56;-3.90;1.00
7378;DHT22;3730;50.856;12.776;2023-01-29T07:28:17;-3.90;1.00
7378;DHT22;3730;50.856;12.776;2023-01-29T07:30:43;-3.90;1.00
7378;DHT22;3730;50.856;12.776;2023-01-29T07:33:09;-3.90;1.00
7378;DHT22;3730;50.856;12.776;2023-01-29T07:35:39;-3.80;1.00
7378;DHT22;3730;50.856;12.776;2023-01-29T07:38:09;-3.80;1.00
7378;DHT22;3730;50.856;12.776;2023-01-29T07:40:35;-3.50;1.00
7378;DHT22;3730;50.856;12.776;2023-01-29T07:43:04;-3.90;1.00
7378;DHT22;3730;50.856;12.776;2023-01-29T07:45:32;-3.90;1.00
7378;DHT22;3730;50.856;12.776;2023-01-29T07:47:57;-3.90;1.00
7378;DHT22;3730;50.856;12.776;2023-01-29T07:50:24;-3.90;1.00
7378;DHT22;3730;50.856;12.776;2023-01-29T07:52:52;-3.80;1.00
7378;DHT22;3730;50.856;12.776;2023-01-29T07:55:19;-3.90;1.00
7378;DHT22;3730;50.856;12.776;2023-01-29T07:57:45;-3.90;1.00
7378;DHT22;3730;50.856;12.776;2023-01-29T08:00:12;-3.70;1.00
7378;DHT22;3730;50.856;12.776;2023-01-29T08:02:39;-3.70;1.00
7378;DHT22;3730;50.856;12.776;2023-01-29T08:05:06;-1.60;1.00
7378;DHT22;3730;50.856;12.776;2023-01-29T08:07:32;-3.60;1.00
7378;DHT22;3730;50.856;12.776;2023-01-29T08:09:57;-3.60;1.00
7378;DHT22;3730;50.856;12.776;2023-01-29T08:12:23;-3.60;1.00
7378;DHT22;3730;50.856;12.776;2023-01-29T08:14:49;-3.50;1.00
7378;DHT22;3730;50.856;12.776;2023-01-29T08:17:14;-3.40;1.00
7378;DHT22;3730;50.856;12.776;2023-01-29T08:19:40;-3.40;1.00
7378;DHT22;3730;50.856;12.776;2023-01-29T08:22:06;-3.40;1.00
7378;DHT22;3730;50.856;12.776;2023-01-29T08:24:31;-3.40;1.00
7378;DHT22;3730;50.856;12.776;2023-01-29T08:26:57;-3.30;1.00
7378;DHT22;3730;50.856;12.776;2023-01-29T08:29:23;0.00;1.00
7378;DHT22;3730;50.856;12.776;2023-01-29T08:31:49;-3.40;1.00
7378;DHT22;3730;50.856;12.776;2023-01-29T08:34:14;-3.30;1.00
7378;DHT22;3730;50.856;12.776;2023-01-29T08:36:40;-3.30;1.00
7378;DHT22;3730;50.856;12.776;2023-01-29T08:39:06;-3.30;1.00
7378;DHT22;3730;50.856;12.776;2023-01-29T08:41:32;-3.30;1.00
7378;DHT22;3730;50.856;12.776;2023-01-29T08:43:57;-3.30;1.00
7378;DHT22;3730;50.856;12.776;2023-01-29T08:46:24;-3.20;1.00
7378;DHT22;3730;50.856;12.776;2023-01-29T08:48:50;-3.30;1.00
7378;DHT22;3730;50.856;12.776;2023-01-29T08:51:16;-1.70;1.00
7378;DHT22;3730;50.856;12.776;2023-01-29T08:53:41;-3.20;1.00
7378;DHT22;3730;50.856;12.776;2023-01-29T08:56:07;-3.30;1.00
7378;DHT22;3730;50.856;12.776;2023-01-29T08:58:33;-3.30;1.00
7378;DHT22;3730;50.856;12.776;2023-01-29T09:01:10;-3.20;99.90
7378;DHT22;3730;50.856;12.776;2023-01-29T09:03:36;-3.30;99.90
7378;DHT22;3730;50.856;12.776;2023-01-29T09:06:05;-3.00;91.70
7378;DHT22;3730;50.856;12.776;2023-01-29T09:10:58;-3.00;99.40
7378;DHT22;3730;50.856;12.776;2023-01-29T09:13:24;-3.10;78.20
7378;DHT22;3730;50.856;12.776;2023-01-29T09:15:50;-3.10;1.00
7378;DHT22;3730;50.856;12.776;2023-01-29T09:18:16;-3.00;1.00
7378;DHT22;3730;50.856;12.776;2023-01-29T09:20:42;-1.60;1.00
7378;DHT22;3730;50.856;12.776;2023-01-29T09:23:08;-1.50;44.60
7378;DHT22;3730;50.856;12.776;2023-01-29T09:25:35;0.50;1.00
7378;DHT22;3730;50.856;12.776;2023-01-29T09:28:00;-2.90;1.00
7378;DHT22;3730;50.856;12.776;2023-01-29T09:30:26;-2.90;1.00
7378;DHT22;3730;50.856;12.776;2023-01-29T09:32:51;-2.80;37.80
7378;DHT22;3730;50.856;12.776;2023-01-29T09:35:17;-2.90;1.00
7378;DHT22;3730;50.856;12.776;2023-01-29T09:37:46;-0.90;1.00
7378;DHT22;3730;50.856;12.776;2023-01-29T09:46:37;-2.70;1.00
7378;DHT22;3730;50.856;12.776;2023-01-29T09:51:47;-2.80;86.30
7378;DHT22;3730;50.856;12.776;2023-01-29T09:54:31;-2.80;87.60
7378;DHT22;3730;50.856;12.776;2023-01-29T09:56:59;-2.70;97.90
7378;DHT22;3730;50.856;12.776;2023-01-29T09:59:30;-1.40;77.90
7378;DHT22;3730;50.856;12.776;2023-01-29T10:02:10;-0.10;52.00
7378;DHT22;3730;50.856;12.776;2023-01-29T10:05:17;-1.40;17.90
7378;DHT22;3730;50.856;12.776;2023-01-29T10:28:45;-2.50;1.00
7378;DHT22;3730;50.856;12.776;2023-01-29T10:31:14;-2.50;1.00
7378;DHT22;3730;50.856;12.776;2023-01-29T10:33:47;-2.30;1.00
7378;DHT22;3730;50.856;12.776;2023-01-29T10:36:20;-0.50;1.00
7378;DHT22;3730;50.856;12.776;2023-01-29T10:38:48;-2.40;78.80
7378;DHT22;3730;50.856;12.776;2023-01-29T10:46:56;-2.20;84.10
7378;DHT22;3730;50.856;12.776;2023-01-29T10:54:53;-1.70;1.00
7378;DHT22;3730;50.856;12.776;2023-01-29T11:00:29;-2.00;1.00
7378;DHT22;3730;50.856;12.776;2023-01-29T11:02:54;-2.00;1.00
7378;DHT22;3730;50.856;12.776;2023-01-29T11:05:31;-2.10;1.00
7378;DHT22;3730;50.856;12.776;2023-01-29T11:08:12;-1.90;1.00
7378;DHT22;3730;50.856;12.776;2023-01-29T11:13:15;-2.00;1.00
7378;DHT22;3730;50.856;12.776;2023-01-29T11:15:42;1.60;1.00
7378;DHT22;3730;50.856;12.776;2023-01-29T11:18:13;-2.00;1.00
7378;DHT22;3730;50.856;12.776;2023-01-29T11:20:41;0.60;99.90
7378;DHT22;3730;50.856;12.776;2023-01-29T11:23:31;-0.30;60.70
7378;DHT22;3730;50.856;12.776;2023-01-29T11:25:59;-1.80;1.00
7378;DHT22;3730;50.856;12.776;2023-01-29T11:28:54;-1.90;1.00
7378;DHT22;3730;50.856;12.776;2023-01-29T11:31:25;-1.80;99.90
7378;DHT22;3730;50.856;12.776;2023-01-29T11:34:11;-1.70;99.90
7378;DHT22;3730;50.856;12.776;2023-01-29T11:36:37;-1.70;99.90
7378;DHT22;3730;50.856;12.776;2023-01-29T11:39:24;-1.20;99.90
7378;DHT22;3730;50.856;12.776;2023-01-29T11:42:03;-0.50;99.90
7378;DHT22;3730;50.856;12.776;2023-01-29T11:47:17;-1.50;99.90
7378;DHT22;3730;50.856;12.776;2023-01-29T11:49:49;-1.40;99.90
7378;DHT22;3730;50.856;12.776;2023-01-29T11:52:18;-1.30;99.90
7378;DHT22;3730;50.856;12.776;2023-01-29T11:55:04;2.10;99.90
7378;DHT22;3730;50.856;12.776;2023-01-29T11:57:40;-1.20;99.90
7378;DHT22;3730;50.856;12.776;2023-01-29T12:02:47;-1.10;99.90
7378;DHT22;3730;50.856;12.776;2023-01-29T12:05:18;-1.00;99.90
7378;DHT22;3730;50.856;12.776;2023-01-29T12:07:50;2.00;99.90
7378;DHT22;3730;50.856;12.776;2023-01-29T12:15:29;1.40;99.90
7378;DHT22;3730;50.856;12.776;2023-01-29T12:21:02;-0.40;99.90
7378;DHT22;3730;50.856;12.776;2023-01-29T12:23:53;-0.70;99.90
7378;DHT22;3730;50.856;12.776;2023-01-29T12:26:35;-0.60;99.90
7378;DHT22;3730;50.856;12.776;2023-01-29T12:39:44;-0.50;99.90
7378;DHT22;3730;50.856;12.776;2023-01-29T12:42:18;0.30;99.90
7378;DHT22;3730;50.856;12.776;2023-01-29T12:45:05;-0.50;99.90
7378;DHT22;3730;50.856;12.776;2023-01-29T12:47:37;-0.40;99.90
7378;DHT22;3730;50.856;12.776;2023-01-29T12:50:16;0.20;99.90
7378;DHT22;3730;50.856;12.776;2023-01-29T12:53:13;0.20;99.90
7378;DHT22;3730;50.856;12.776;2023-01-29T12:55:41;-0.50;99.90
7378;DHT22;3730;50.856;12.776;2023-01-29T13:00:45;2.00;99.90
7378;DHT22;3730;50.856;12.776;2023-01-29T13:06:13;-0.40;99.90
7378;DHT22;3730;50.856;12.776;2023-01-29T13:08:55;-0.30;99.90
7378;DHT22;3730;50.856;12.776;2023-01-29T13:11:43;-0.40;99.90
7378;DHT22;3730;50.856;12.776;2023-01-29T13:14:21;-0.30;99.90
7378;DHT22;3730;50.856;12.776;2023-01-29T13:16:52;-0.30;99.90
7378;DHT22;3730;50.856;12.776;2023-01-29T13:19:26;-0.30;99.90
7378;DHT22;3730;50.856;12.776;2023-01-29T13:21:54;-0.20;99.90
7378;DHT22;3730;50.856;12.776;2023-01-29T13:24:24;-0.30;99.90
7378;DHT22;3730;50.856;12.776;2023-01-29T13:26:50;-0.30;99.90
7378;DHT22;3730;50.856;12.776;2023-01-29T13:31:47;1.40;99.90
7378;DHT22;3730;50.856;12.776;2023-01-29T13:36:43;2.50;99.90
7378;DHT22;3730;50.856;12.776;2023-01-29T13:39:21;3.00;99.90
7378;DHT22;3730;50.856;12.776;2023-01-29T13:41:49;-0.20;99.90
7378;DHT22;3730;50.856;12.776;2023-01-29T13:44:33;-0.30;99.90
7378;DHT22;3730;50.856;12.776;2023-01-29T13:47:09;-0.20;99.90
7378;DHT22;3730;50.856;12.776;2023-01-29T13:49:42;-0.30;99.90
7378;DHT22;3730;50.856;12.776;2023-01-29T13:55:02;-0.40;99.90
7378;DHT22;3730;50.856;12.776;2023-01-29T14:10:40;-0.50;99.90
7378;DHT22;3730;50.856;12.776;2023-01-29T14:18:26;0.00;99.90
7378;DHT22;3730;50.856;12.776;2023-01-29T14:20:56;-0.60;99.90
7378;DHT22;3730;50.856;12.776;2023-01-29T14:23:50;1.20;99.90
7378;DHT22;3730;50.856;12.776;2023-01-29T14:26:43;-0.50;99.90
7378;DHT22;3730;50.856;12.776;2023-01-29T14:39:46;-0.60;99.90
7378;DHT22;3730;50.856;12.776;2023-01-29T14:42:33;-0.70;99.90
7378;DHT22;3730;50.856;12.776;2023-01-29T14:45:22;0.90;99.90
7378;DHT22;3730;50.856;12.776;2023-01-29T14:55:56;-0.80;99.90
7378;DHT22;3730;50.856;12.776;2023-01-29T15:00:55;-0.90;99.90
7378;DHT22;3730;50.856;12.776;2023-01-29T15:03:33;-0.80;99.90
7378;DHT22;3730;50.856;12.776;2023-01-29T15:06:00;-0.80;99.90
7378;DHT22;3730;50.856;12.776;2023-01-29T15:09:01;-0.90;99.90
7378;DHT22;3730;50.856;12.776;2023-01-29T15:12:15;2.70;99.90
7378;DHT22;3730;50.856;12.776;2023-01-29T15:17:58;-0.80;99.90
7378;DHT22;3730;50.856;12.776;2023-01-29T15:20:30;-0.90;99.90
7378;DHT22;3730;50.856;12.776;2023-01-29T15:22:56;-0.10;99.90
7378;DHT22;3730;50.856;12.776;2023-01-29T15:25:23;-0.90;99.90
7378;DHT22;3730;50.856;12.776;2023-01-29T15:27:49;-1.00;99.90
7378;DHT22;3730;50.856;12.776;2023-01-29T15:30:22;-1.00;99.90
7378;DHT22;3730;50.856;12.776;2023-01-29T15:32:50;2.10;99.90
7378;DHT22;3730;50.856;12.776;2023-01-29T15:35:30;-1.20;99.90
7378;DHT22;3730;50.856;12.776;2023-01-29T15:38:13;-1.20;99.90
7378;DHT22;3730;50.856;12.776;2023-01-29T15:40:40;1.30;99.90
7378;DHT22;3730;50.856;12.776;2023-01-29T15:46:06;-1.30;99.90
7378;DHT22;3730;50.856;12.776;2023-01-29T15:48:39;0.90;99.90
7378;DHT22;3730;50.856;12.776;2023-01-29T15:51:07;-1.50;99.90
7378;DHT22;3730;50.856;12.776;2023-01-29T15:53:45;1.00;99.90
7378;DHT22;3730;50.856;12.776;2023-01-29T15:56:16;-1.60;99.90
7378;DHT22;3730;50.856;12.776;2023-01-29T15:58:46;0.00;99.90
7378;DHT22;3730;50.856;12.776;2023-01-29T16:01:13;-1.60;99.90
7378;DHT22;3730;50.856;12.776;2023-01-29T16:03:39;-1.60;99.90
7378;DHT22;3730;50.856;12.776;2023-01-29T16:06:05;1.10;99.90
7378;DHT22;3730;50.856;12.776;2023-01-29T16:08:32;-1.70;99.90
7378;DHT22;3730;50.856;12.776;2023-01-29T16:11:03;-1.70;99.90
7378;DHT22;3730;50.856;12.776;2023-01-29T16:13:34;0.40;99.90
7378;DHT22;3730;50.856;12.776;2023-01-29T16:18:45;-1.70;99.90
7378;DHT22;3730;50.856;12.776;2023-01-29T16:21:15;0.00;99.90
7378;DHT22;3730;50.856;12.776;2023-01-29T16:23:48;-0.30;99.90
7378;DHT22;3730;50.856;12.776;2023-01-29T16:26:17;-2.00;99.90
7378;DHT22;3730;50.856;12.776;2023-01-29T16:28:45;1.60;99.90
7378;DHT22;3730;50.856;12.776;2023-01-29T16:31:11;-2.00;99.90
7378;DHT22;3730;50.856;12.776;2023-01-29T16:33:41;-2.10;99.90
7378;DHT22;3730;50.856;12.776;2023-01-29T16:36:19;0.10;99.90
7378;DHT22;3730;50.856;12.776;2023-01-29T16:38:55;-2.10;99.90
7378;DHT22;3730;50.856;12.776;2023-01-29T16:46:34;-2.10;99.90
7378;DHT22;3730;50.856;12.776;2023-01-29T16:49:01;-2.20;99.90
7378;DHT22;3730;50.856;12.776;2023-01-29T16:51:36;-2.20;99.90
7378;DHT22;3730;50.856;12.776;2023-01-29T16:54:10;-2.20;99.90
7378;DHT22;3730;50.856;12.776;2023-01-29T16:56:37;-2.20;99.90
7378;DHT22;3730;50.856;12.776;2023-01-29T16:59:04;-2.30;99.90
7378;DHT22;3730;50.856;12.776;2023-01-29T17:01:31;-0.10;99.90
7378;DHT22;3730;50.856;12.776;2023-01-29T17:04:11;-1.90;99.90
7378;DHT22;3730;50.856;12.776;2023-01-29T17:06:40;-2.30;99.90
7378;DHT22;3730;50.856;12.776;2023-01-29T17:09:07;0.10;99.90
7378;DHT22;3730;50.856;12.776;2023-01-29T17:11:38;-2.30;99.90
7378;DHT22;3730;50.856;12.776;2023-01-29T17:14:06;-2.30;99.90
7378;DHT22;3730;50.856;12.776;2023-01-29T17:16:34;1.10;99.90
7378;DHT22;3730;50.856;12.776;2023-01-29T17:19:00;-1.90;99.90
7378;DHT22;3730;50.856;12.776;2023-01-29T17:21:27;-2.50;99.90
7378;DHT22;3730;50.856;12.776;2023-01-29T17:23:53;-1.10;99.90
7378;DHT22;3730;50.856;12.776;2023-01-29T17:26:19;-2.50;99.90
7378;DHT22;3730;50.856;12.776;2023-01-29T17:28:48;-2.40;99.90
7378;DHT22;3730;50.856;12.776;2023-01-29T17:31:14;-1.60;99.90
7378;DHT22;3730;50.856;12.776;2023-01-29T17:33:41;-2.40;99.90
7378;DHT22;3730;50.856;12.776;2023-01-29T17:36:12;-2.50;99.90
7378;DHT22;3730;50.856;12.776;2023-01-29T17:38:39;-2.30;99.90
7378;DHT22;3730;50.856;12.776;2023-01-29T17:41:23;-2.40;99.90
7378;DHT22;3730;50.856;12.776;2023-01-29T17:43:50;-2.40;99.90
7378;DHT22;3730;50.856;12.776;2023-01-29T17:46:16;-2.50;99.90
7378;DHT22;3730;50.856;12.776;2023-01-29T17:48:43;-1.00;99.90
7378;DHT22;3730;50.856;12.776;2023-01-29T17:51:12;-2.50;99.90
7378;DHT22;3730;50.856;12.776;2023-01-29T17:53:39;-1.50;99.90
7378;DHT22;3730;50.856;12.776;2023-01-29T17:56:05;-2.50;99.90
7378;DHT22;3730;50.856;12.776;2023-01-29T17:58:31;-2.50;99.90
7378;DHT22;3730;50.856;12.776;2023-01-29T18:00:57;-1.50;99.90
7378;DHT22;3730;50.856;12.776;2023-01-29T18:03:22;0.70;99.90
7378;DHT22;3730;50.856;12.776;2023-01-29T18:05:49;1.00;99.90
7378;DHT22;3730;50.856;12.776;2023-01-29T18:08:32;-2.60;99.90
7378;DHT22;3730;50.856;12.776;2023-01-29T18:10:59;-2.50;99.90
7378;DHT22;3730;50.856;12.776;2023-01-29T18:13:24;-0.10;99.90
7378;DHT22;3730;50.856;12.776;2023-01-29T18:15:50;-2.60;99.90
7378;DHT22;3730;50.856;12.776;2023-01-29T18:18:20;-1.80;99.90
7378;DHT22;3730;50.856;12.776;2023-01-29T18:20:46;-2.50;99.90
7378;DHT22;3730;50.856;12.776;2023-01-29T18:23:13;-2.10;99.90
7378;DHT22;3730;50.856;12.776;2023-01-29T18:25:40;-2.40;99.90
7378;DHT22;3730;50.856;12.776;2023-01-29T18:28:06;-1.30;99.90
7378;DHT22;3730;50.856;12.776;2023-01-29T18:30:32;0.80;99.90
7378;DHT22;3730;50.856;12.776;2023-01-29T18:32:58;-1.00;99.90
7378;DHT22;3730;50.856;12.776;2023-01-29T18:35:24;-2.60;99.90
7378;DHT22;3730;50.856;12.776;2023-01-29T18:37:50;-2.50;99.90
7378;DHT22;3730;50.856;12.776;2023-01-29T18:40:16;-2.60;99.90
7378;DHT22;3730;50.856;12.776;2023-01-29T18:42:43;-2.50;99.90
7378;DHT22;3730;50.856;12.776;2023-01-29T18:45:10;-2.60;99.90
7378;DHT22;3730;50.856;12.776;2023-01-29T18:47:37;-2.50;99.90
7378;DHT22;3730;50.856;12.776;2023-01-29T18:50:03;-2.70;99.90
7378;DHT22;3730;50.856;12.776;2023-01-29T18:52:29;-2.60;99.90
7378;DHT22;3730;50.856;12.776;2023-01-29T18:54:55;-2.60;99.90
7378;DHT22;3730;50.856;12.776;2023-01-29T18:57:20;-1.60;99.90
7378;DHT22;3730;50.856;12.776;2023-01-29T18:59:46;-1.40;99.90
7378;DHT22;3730;50.856;12.776;2023-01-29T19:02:13;-2.50;99.90
7378;DHT22;3730;50.856;12.776;2023-01-29T19:04:40;-2.50;99.90
7378;DHT22;3730;50.856;12.776;2023-01-29T19:07:08;-2.50;99.90
7378;DHT22;3730;50.856;12.776;2023-01-29T19:09:34;-2.50;99.90
7378;DHT22;3730;50.856;12.776;2023-01-29T19:12:00;0.80;99.90
7378;DHT22;3730;50.856;12.776;2023-01-29T19:14:26;-2.50;99.90
7378;DHT22;3730;50.856;12.776;2023-01-29T19:16:51;-2.50;99.90
7378;DHT22;3730;50.856;12.776;2023-01-29T19:19:17;-2.50;99.90
7378;DHT22;3730;50.856;12.776;2023-01-29T19:21:42;-0.60;99.90
7378;DHT22;3730;50.856;12.776;2023-01-29T19:24:08;-2.50;99.90
7378;DHT22;3730;50.856;12.776;2023-01-29T19:26:35;-2.50;99.90
7378;DHT22;3730;50.856;12.776;2023-01-29T19:29:01;-0.20;99.90
7378;DHT22;3730;50.856;12.776;2023-01-29T19:31:27;-0.90;99.90
7378;DHT22;3730;50.856;12.776;2023-01-29T19:33:53;1.10;99.90
7378;DHT22;3730;50.856;12.776;2023-01-29T19:36:18;-0.90;99.90
7378;DHT22;3730;50.856;12.776;2023-01-29T19:38:44;-2.80;99.90
7378;DHT22;3730;50.856;12.776;2023-01-29T19:41:10;-2.60;99.90
7378;DHT22;3730;50.856;12.776;2023-01-29T19:43:35;-0.30;99.90
7378;DHT22;3730;50.856;12.776;2023-01-29T19:46:05;-2.80;99.90
7378;DHT22;3730;50.856;12.776;2023-01-29T19:48:31;0.30;99.90
7378;DHT22;3730;50.856;12.776;2023-01-29T19:51:03;0.40;99.90
7378;DHT22;3730;50.856;12.776;2023-01-29T19:53:29;-1.40;99.90
7378;DHT22;3730;50.856;12.776;2023-01-29T19:56:10;-2.70;99.90
7378;DHT22;3730;50.856;12.776;2023-01-29T19:58:36;-2.80;99.90
7378;DHT22;3730;50.856;12.776;2023-01-29T20:01:11;-1.70;99.90
7378;DHT22;3730;50.856;12.776;2023-01-29T20:03:37;-2.70;99.90
7378;DHT22;3730;50.856;12.776;2023-01-29T20:06:05;-1.20;99.90
7378;DHT22;3730;50.856;12.776;2023-01-29T20:08:32;-2.80;99.90
7378;DHT22;3730;50.856;12.776;2023-01-29T20:10:57;-2.90;99.90
7378;DHT22;3730;50.856;12.776;2023-01-29T20:13:23;-2.90;99.90
7378;DHT22;3730;50.856;12.776;2023-01-29T20:15:50;-2.90;99.90